createdAt,value
2022-08-14T00:01:02.755Z,1.10
2022-08-14T00:03:36.606Z,1.30
2022-08-14T00:06:25.635Z,1.20
2022-08-14T00:08:51.002Z,1.20
2022-08-14T00:11:17.153Z,1.33
2022-08-14T00:13:43.585Z,1.30
2022-08-14T00:16:41.154Z,1.27
2022-08-14T00:19:05.960Z,1.15
2022-08-14T00:21:45.145Z,1.40
2022-08-14T00:24:11.254Z,1.30
2022-08-14T00:26:38.957Z,1.08
2022-08-14T00:29:05.793Z,1.33
2022-08-14T00:31:44.100Z,1.30
2022-08-14T00:34:35.276Z,1.20
2022-08-14T00:36:56.846Z,1.25
2022-08-14T00:39:25.725Z,1.20
2022-08-14T00:41:51.997Z,1.35
2022-08-14T00:44:27.644Z,1.20
2022-08-14T00:46:59.163Z,1.67
2022-08-14T00:49:25.371Z,1.30
2022-08-14T00:51:52.860Z,1.23
2022-08-14T00:54:21.906Z,1.23
2022-08-14T00:56:55.116Z,1.40
2022-08-14T00:59:24.031Z,1.50
2022-08-14T01:01:52.681Z,1.10
2022-08-14T01:04:38.002Z,1.23
2022-08-14T01:07:08.984Z,1.10
2022-08-14T01:09:39.275Z,1.30
2022-08-14T01:12:06.386Z,1.30
2022-08-14T01:14:34.663Z,1.50
2022-08-14T01:17:02.341Z,1.35
2022-08-14T01:19:48.034Z,1.15
2022-08-14T01:22:18.505Z,1.20
2022-08-14T01:24:45.445Z,1.20
2022-08-14T01:27:17.915Z,1.30
2022-08-14T01:30:03.742Z,1.48
2022-08-14T01:32:37.590Z,1.20
2022-08-14T01:35:17.637Z,1.38
2022-08-14T01:37:54.760Z,1.20
2022-08-14T01:40:33.502Z,1.20
2022-08-14T01:43:15.012Z,1.25
2022-08-14T01:45:42.032Z,1.27
2022-08-14T01:48:13.511Z,1.45
2022-08-14T01:50:41.443Z,1.20
2022-08-14T01:53:07.805Z,1.50
2022-08-14T01:55:34.625Z,1.45
2022-08-14T01:58:19.526Z,1.45
2022-08-14T02:00:53.328Z,1.40
2022-08-14T02:03:22.751Z,1.33
2022-08-14T02:05:49.234Z,1.17
2022-08-14T02:08:16.373Z,1.27
2022-08-14T02:11:08.773Z,1.10
2022-08-14T02:13:37.118Z,1.10
2022-08-14T02:16:13.425Z,1.15
2022-08-14T02:18:48.994Z,1.27
2022-08-14T02:21:17.853Z,1.20
2022-08-14T02:23:53.582Z,1.42
2022-08-14T02:26:29.048Z,1.40
2022-08-14T02:29:08.225Z,1.23
2022-08-14T02:31:43.244Z,1.30
2022-08-14T02:34:18.647Z,1.30
2022-08-14T02:37:04.249Z,1.48
2022-08-14T02:39:39.297Z,1.30
2022-08-14T02:42:13.138Z,1.25
2022-08-14T02:44:49.602Z,1.30
2022-08-14T02:47:20.665Z,1.42
2022-08-14T02:49:50.750Z,1.23
2022-08-14T02:52:56.542Z,1.48
2022-08-14T02:55:08.662Z,1.30
2022-08-14T02:57:40.732Z,1.48
2022-08-14T03:00:10.002Z,1.42
2022-08-14T03:02:49.422Z,1.40
2022-08-14T03:05:23.011Z,1.50
2022-08-14T03:07:49.109Z,1.60
2022-08-14T03:10:26.165Z,1.40
2022-08-14T03:12:58.439Z,1.65
2022-08-14T03:15:25.415Z,1.30
2022-08-14T03:17:57.276Z,1.30
2022-08-14T03:20:27.342Z,1.50
2022-08-14T03:22:53.954Z,1.40
2022-08-14T03:25:21.826Z,1.50
2022-08-14T03:27:58.543Z,1.58
2022-08-14T03:30:39.255Z,1.35
2022-08-14T03:33:08.048Z,1.42
2022-08-14T03:35:39.945Z,1.48
2022-08-14T03:39:12.348Z,1.60
2022-08-14T03:40:56.153Z,1.42
2022-08-14T03:43:22.249Z,1.60
2022-08-14T03:45:48.858Z,1.60
2022-08-14T03:48:30.474Z,1.50
2022-08-14T03:50:58.951Z,1.60
2022-08-14T03:53:25.644Z,1.60
2022-08-14T03:55:55.525Z,1.80
2022-08-14T03:58:23.738Z,1.50
2022-08-14T04:01:03.576Z,1.70
2022-08-14T04:03:32.785Z,1.70
2022-08-14T04:06:01.131Z,1.60
2022-08-14T04:08:30.460Z,1.88
2022-08-14T04:10:59.353Z,1.75
2022-08-14T04:13:31.373Z,1.60
2022-08-14T04:16:02.433Z,1.42
2022-08-14T04:18:31.761Z,1.65
2022-08-14T04:21:00.409Z,1.58
2022-08-14T04:23:29.465Z,1.80
2022-08-14T04:26:01.407Z,1.60
2022-08-14T04:29:07.107Z,1.65
2022-08-14T04:31:15.388Z,1.70
2022-08-14T04:33:42.115Z,1.40
2022-08-14T04:36:09.306Z,1.60
2022-08-14T04:39:00.865Z,1.80
2022-08-14T04:41:53.301Z,1.67
2022-08-14T04:44:36.212Z,1.70
2022-08-14T04:47:22.453Z,1.55
2022-08-14T04:49:57.453Z,1.70
2022-08-14T04:52:24.903Z,1.63
2022-08-14T04:54:51.699Z,1.70
2022-08-14T04:57:17.835Z,1.67
2022-08-14T04:59:45.665Z,1.80
2022-08-14T05:02:13.115Z,1.80
2022-08-14T05:04:40.191Z,1.60
2022-08-14T05:07:11.686Z,1.90
2022-08-14T05:09:37.807Z,1.60
2022-08-14T05:13:08.334Z,1.50
2022-08-14T05:14:57.402Z,1.60
2022-08-14T05:17:28.646Z,1.85
2022-08-14T05:21:57.671Z,1.60
2022-08-14T05:22:41.229Z,1.70
2022-08-14T05:25:08.582Z,1.65
2022-08-14T05:27:36.317Z,1.73
2022-08-14T05:30:05.543Z,1.60
2022-08-14T05:32:31.671Z,1.70
2022-08-14T05:34:59.108Z,1.73
2022-08-14T05:37:27.095Z,1.88
2022-08-14T05:39:54.349Z,1.73
2022-08-14T05:42:26.980Z,1.80
2022-08-14T05:45:05.678Z,1.80
2022-08-14T05:47:41.200Z,1.65
2022-08-14T05:50:18.487Z,1.77
2022-08-14T05:52:46.287Z,1.67
2022-08-14T05:55:12.562Z,1.77
2022-08-14T05:57:53.228Z,1.60
2022-08-14T06:00:28.177Z,1.80
2022-08-14T06:02:57.985Z,1.70
2022-08-14T06:05:24.974Z,1.42
2022-08-14T06:07:57.376Z,1.83
2022-08-14T06:10:24.147Z,1.60
2022-08-14T06:12:55.779Z,1.60
2022-08-14T06:15:27.632Z,1.52
2022-08-14T06:17:59.061Z,1.70
2022-08-14T06:20:26.851Z,1.50
2022-08-14T06:22:54.683Z,1.50
2022-08-14T06:25:22.329Z,1.88
2022-08-14T06:27:49.581Z,1.83
2022-08-14T06:30:22.393Z,1.70
2022-08-14T06:32:52.945Z,1.60
2022-08-14T06:35:22.826Z,1.60
2022-08-14T06:37:51.722Z,1.65
2022-08-14T06:40:28.468Z,1.60
2022-08-14T06:42:56.544Z,1.80
2022-08-14T06:45:26.192Z,1.55
2022-08-14T06:47:53.423Z,1.85
2022-08-14T06:50:21.506Z,1.50
2022-08-14T06:52:54.914Z,1.35
2022-08-14T06:55:26.478Z,1.40
2022-08-14T06:57:55.417Z,1.50
2022-08-14T07:00:26.967Z,1.38
2022-08-14T07:03:15.258Z,1.40
2022-08-14T07:05:55.650Z,1.50
2022-08-14T07:08:29.427Z,1.52
2022-08-14T07:11:00.103Z,1.58
2022-08-14T07:13:27.686Z,1.40
2022-08-14T07:15:56.041Z,1.50
2022-08-14T07:18:27.171Z,1.50
2022-08-14T07:20:54.502Z,1.42
2022-08-14T07:23:23.441Z,1.20
2022-08-14T07:25:53.366Z,1.20
2022-08-14T07:28:24.601Z,1.40
2022-08-14T07:30:55.597Z,1.40
2022-08-14T07:33:29.123Z,1.50
2022-08-14T07:35:59.319Z,1.33
2022-08-14T07:38:32.086Z,1.50
2022-08-14T07:41:04.747Z,1.30
2022-08-14T07:43:39.722Z,1.50
2022-08-14T07:46:06.573Z,1.60
2022-08-14T07:48:40.682Z,1.30
2022-08-14T07:51:10.990Z,1.58
2022-08-14T07:53:40.552Z,1.40
2022-08-14T07:56:21.597Z,1.25
2022-08-14T07:58:58.331Z,1.50
2022-08-14T08:01:27.142Z,1.40
2022-08-14T08:03:59.719Z,1.30
2022-08-14T08:06:27.688Z,1.38
2022-08-14T08:09:01.485Z,1.35
2022-08-14T08:11:34.985Z,1.38
2022-08-14T08:14:06.523Z,1.30
2022-08-14T08:16:37.626Z,1.30
2022-08-14T08:19:12.640Z,1.50
2022-08-14T08:21:40.083Z,1.30
2022-08-14T08:24:10.550Z,1.33
2022-08-14T08:26:38.723Z,1.30
2022-08-14T08:29:05.713Z,1.30
2022-08-14T08:31:32.875Z,1.33
2022-08-14T08:34:05.184Z,1.38
2022-08-14T08:36:41.088Z,1.40
2022-08-14T08:39:17.704Z,1.38
2022-08-14T08:41:50.559Z,1.27
2022-08-14T08:44:33.180Z,1.20
2022-08-14T08:47:05.184Z,1.48
2022-08-14T08:49:42.327Z,1.20
2022-08-14T08:52:25.498Z,1.33
2022-08-14T08:54:57.302Z,1.30
2022-08-14T08:57:24.863Z,1.42
2022-08-14T08:59:55.141Z,1.30
2022-08-14T09:02:26.108Z,1.30
2022-08-14T09:05:01.875Z,1.20
2022-08-14T09:07:28.262Z,1.27
2022-08-14T09:09:58.966Z,1.50
2022-08-14T09:12:32.232Z,1.10
2022-08-14T09:15:12.340Z,1.02
2022-08-14T09:17:41.325Z,1.13
2022-08-14T09:20:08.454Z,1.20
2022-08-14T09:22:42.681Z,1.40
2022-08-14T09:25:16.141Z,1.13
2022-08-14T09:27:42.857Z,1.23
2022-08-14T09:30:12.805Z,1.27
2022-08-14T09:33:04.956Z,1.20
2022-08-14T09:36:35.131Z,1.30
2022-08-14T09:39:22.920Z,1.40
2022-08-14T09:42:33.592Z,1.30
2022-08-14T09:45:16.978Z,1.20
2022-08-14T09:47:52.093Z,1.30
2022-08-14T09:50:25.914Z,1.00
2022-08-14T09:53:18.240Z,1.05
2022-08-14T09:55:57.791Z,1.20
2022-08-14T09:58:34.217Z,1.20
2022-08-14T10:01:18.123Z,1.30
2022-08-14T10:03:49.182Z,1.30
2022-08-14T10:06:28.585Z,1.23
2022-08-14T10:09:04.670Z,1.40
2022-08-14T10:11:35.982Z,1.00
2022-08-14T10:14:29.582Z,1.13
2022-08-14T10:17:04.844Z,1.20
2022-08-14T10:19:35.791Z,1.40
2022-08-14T10:23:14.159Z,1.45
2022-08-14T10:24:56.478Z,1.27
2022-08-14T10:27:24.930Z,1.30
2022-08-14T10:30:00.067Z,1.30
2022-08-14T10:32:28.686Z,1.20
2022-08-14T10:35:14.291Z,1.10
2022-08-14T10:37:49.490Z,1.30
2022-08-14T10:40:38.238Z,1.30
2022-08-14T10:43:24.778Z,1.20
2022-08-14T10:46:03.627Z,1.13
2022-08-14T10:48:57.669Z,1.17
2022-08-14T10:51:25.761Z,1.17
2022-08-14T10:53:57.739Z,1.30
2022-08-14T10:56:34.993Z,1.10
2022-08-14T10:59:07.087Z,1.15
2022-08-14T11:01:40.817Z,1.17
2022-08-14T11:04:20.277Z,1.23
2022-08-14T11:06:52.952Z,1.20
2022-08-14T11:09:19.106Z,1.35
2022-08-14T11:11:48.721Z,1.00
2022-08-14T11:14:23.023Z,1.10
2022-08-14T11:16:53.998Z,1.20
2022-08-14T11:19:24.310Z,1.15
2022-08-14T11:21:52.054Z,0.90
2022-08-14T11:24:55.134Z,1.27
2022-08-14T11:27:15.849Z,1.10
2022-08-14T11:29:48.581Z,1.30
2022-08-14T11:32:19.478Z,1.10
2022-08-14T11:34:46.318Z,1.10
2022-08-14T11:37:18.162Z,1.20
2022-08-14T11:39:47.983Z,1.05
2022-08-14T11:42:56.608Z,1.05
2022-08-14T11:45:16.960Z,1.33
2022-08-14T11:48:12.619Z,1.20
2022-08-14T11:50:37.704Z,1.05
2022-08-14T11:53:06.873Z,1.10
2022-08-14T11:55:36.310Z,1.40
2022-08-14T11:58:11.115Z,1.23
2022-08-14T12:01:00.191Z,1.10
2022-08-14T12:03:51.611Z,1.17
2022-08-14T12:06:28.982Z,1.13
2022-08-14T12:09:02.491Z,1.10
2022-08-14T12:11:43.286Z,1.00
2022-08-14T12:14:13.403Z,1.27
2022-08-14T12:17:12.599Z,1.20
2022-08-14T12:19:51.427Z,1.17
2022-08-14T12:22:32.805Z,1.20
2022-08-14T12:25:00.619Z,1.35
2022-08-14T12:27:52.015Z,1.27
2022-08-14T12:30:39.812Z,1.20
2022-08-14T12:33:33.020Z,1.10
2022-08-14T12:36:04.621Z,1.10
2022-08-14T12:38:40.563Z,1.08
2022-08-14T12:41:11.243Z,1.50
2022-08-14T12:43:56.234Z,1.02
2022-08-14T12:46:31.187Z,1.30
2022-08-14T12:49:08.333Z,1.00
2022-08-14T12:51:34.908Z,1.10
2022-08-14T12:54:26.468Z,1.15
2022-08-14T12:57:13.578Z,1.05
2022-08-14T12:59:45.378Z,1.20
2022-08-14T13:02:25.449Z,1.10
2022-08-14T13:04:54.942Z,1.40
2022-08-14T13:07:21.322Z,1.20
2022-08-14T13:09:55.389Z,1.10
2022-08-14T13:12:56.645Z,1.10
2022-08-14T13:15:17.101Z,1.10
2022-08-14T13:17:51.450Z,1.10
2022-08-14T13:20:24.687Z,1.20
2022-08-14T13:22:54.309Z,1.05
2022-08-14T13:25:26.942Z,1.20
2022-08-14T13:27:59.939Z,1.30
2022-08-14T13:30:27.766Z,1.00
2022-08-14T13:32:57.995Z,1.20
2022-08-14T13:35:25.481Z,1.20
2022-08-14T13:37:53.686Z,1.30
2022-08-14T13:40:22.226Z,1.10
2022-08-14T13:42:54.598Z,1.20
2022-08-14T13:45:22.537Z,1.30
2022-08-14T13:47:50.842Z,1.20
2022-08-14T13:50:20.542Z,1.00
2022-08-14T13:52:54.845Z,1.13
2022-08-14T13:55:28.032Z,1.30
2022-08-14T13:58:04.024Z,1.30
2022-08-14T14:00:53.510Z,1.20
2022-08-14T14:03:22.611Z,0.98
2022-08-14T14:05:54.744Z,1.10
2022-08-14T14:08:46.969Z,1.20
2022-08-14T14:11:10.024Z,0.90
2022-08-14T14:13:37.650Z,1.20
2022-08-14T14:16:09.038Z,1.00
2022-08-14T14:18:37.645Z,1.15
2022-08-14T14:21:09.783Z,1.05
2022-08-14T14:23:37.334Z,1.10
2022-08-14T14:26:05.449Z,1.00
2022-08-14T14:28:31.941Z,1.10
2022-08-14T14:31:01.361Z,0.93
2022-08-14T14:33:50.119Z,1.00
2022-08-14T14:36:25.775Z,1.20
2022-08-14T14:38:56.937Z,1.23
2022-08-14T14:41:26.404Z,1.20
2022-08-14T14:43:54.197Z,1.10
2022-08-14T14:46:22.150Z,0.95
2022-08-14T14:49:06.041Z,1.10
2022-08-14T14:51:34.278Z,1.05
2022-08-14T14:54:01.604Z,1.15
2022-08-14T14:56:50.258Z,1.30
2022-08-14T14:59:17.057Z,1.30
2022-08-14T15:01:47.841Z,1.05
2022-08-14T15:04:20.881Z,0.90
2022-08-14T15:06:48.284Z,1.02
2022-08-14T15:09:17.616Z,1.00
2022-08-14T15:11:45.563Z,1.17
2022-08-14T15:14:55.896Z,1.27
2022-08-14T15:16:59.187Z,1.10
2022-08-14T15:19:26.919Z,1.00
2022-08-14T15:21:53.405Z,0.93
2022-08-14T15:24:26.534Z,0.90
2022-08-14T15:26:53.047Z,1.10
2022-08-14T15:29:19.175Z,1.10
2022-08-14T15:31:45.271Z,1.33
2022-08-14T15:34:45.031Z,1.10
2022-08-14T15:37:00.020Z,1.17
2022-08-14T15:39:29.586Z,1.17
2022-08-14T15:42:02.131Z,1.20
2022-08-14T15:44:34.228Z,0.90
2022-08-14T15:47:01.149Z,1.15
2022-08-14T15:49:34.608Z,1.20
2022-08-14T15:52:03.977Z,1.00
2022-08-14T15:54:31.554Z,1.00
2022-08-14T15:57:09.244Z,1.20
2022-08-14T15:59:55.735Z,0.90
2022-08-14T16:02:27.718Z,1.30
2022-08-14T16:04:54.607Z,1.13
2022-08-14T16:07:22.154Z,1.00
2022-08-14T16:10:06.178Z,1.10
2022-08-14T16:12:46.108Z,0.93
2022-08-14T16:15:20.755Z,1.33
2022-08-14T16:17:47.808Z,1.00
2022-08-14T16:20:42.297Z,1.10
2022-08-14T16:23:11.709Z,1.17
2022-08-14T16:25:41.395Z,1.20
2022-08-14T16:28:09.466Z,1.30
2022-08-14T16:30:35.621Z,1.20
2022-08-14T16:33:04.135Z,1.30
2022-08-14T16:35:42.870Z,0.90
2022-08-14T16:38:45.273Z,1.10
2022-08-14T16:41:23.145Z,0.98
2022-08-14T16:44:05.635Z,1.10
2022-08-14T16:46:43.864Z,1.25
2022-08-14T16:49:13.032Z,0.95
2022-08-14T16:51:40.838Z,1.10
2022-08-14T16:54:21.078Z,1.20
2022-08-14T16:57:12.061Z,1.00
2022-08-14T16:59:52.789Z,0.90
2022-08-14T17:02:42.040Z,1.13
2022-08-14T17:05:37.446Z,1.10
2022-08-14T17:08:03.497Z,1.20
2022-08-14T17:10:49.515Z,1.27
2022-08-14T17:13:20.664Z,1.13
2022-08-14T17:16:23.971Z,1.10
2022-08-14T17:19:01.217Z,1.20
2022-08-14T17:21:31.358Z,1.10
2022-08-14T17:24:56.261Z,0.93
2022-08-14T17:26:55.255Z,1.20
2022-08-14T17:29:29.638Z,1.27
2022-08-14T17:32:19.269Z,1.23
2022-08-14T17:34:55.415Z,1.30
2022-08-14T17:37:55.814Z,1.10
2022-08-14T17:40:28.915Z,1.15
2022-08-14T17:42:58.901Z,1.10
2022-08-14T17:45:41.179Z,1.00
2022-08-14T17:49:16.349Z,1.10
2022-08-14T17:51:12.268Z,1.00
2022-08-14T17:53:38.797Z,1.10
2022-08-14T17:56:19.741Z,1.20
2022-08-14T17:58:46.273Z,1.00
2022-08-14T18:01:13.882Z,0.93
2022-08-14T18:03:46.689Z,1.20
2022-08-14T18:06:39.315Z,1.25
2022-08-14T18:09:08.502Z,1.02
2022-08-14T18:11:58.403Z,0.95
2022-08-14T18:14:32.360Z,0.93
2022-08-14T18:17:12.845Z,1.30
2022-08-14T18:19:43.534Z,1.05
2022-08-14T18:22:30.979Z,1.10
2022-08-14T18:24:56.603Z,1.10
2022-08-14T18:27:31.871Z,1.02
2022-08-14T18:30:00.456Z,0.90
2022-08-14T18:32:55.081Z,1.10
2022-08-14T18:35:58.158Z,1.00
2022-08-14T18:38:46.446Z,1.00
2022-08-14T18:41:37.392Z,1.10
2022-08-14T18:44:10.912Z,1.10
2022-08-14T18:47:08.551Z,1.08
2022-08-14T18:50:00.009Z,1.00
2022-08-14T18:52:36.689Z,1.13
2022-08-14T18:55:17.706Z,1.00
2022-08-14T18:57:58.586Z,1.17
2022-08-14T19:00:33.504Z,0.93
2022-08-14T19:03:02.027Z,1.00
2022-08-14T19:05:37.111Z,0.90
2022-08-14T19:08:24.785Z,1.02
2022-08-14T19:11:04.222Z,0.90
2022-08-14T19:13:44.435Z,1.00
2022-08-14T19:16:22.757Z,1.00
2022-08-14T19:19:00.542Z,1.27
2022-08-14T19:21:33.658Z,0.95
2022-08-14T19:24:30.388Z,1.10
2022-08-14T19:27:19.734Z,1.10
2022-08-14T19:30:09.259Z,1.27
2022-08-14T19:32:45.718Z,1.00
2022-08-14T19:35:48.880Z,1.20
2022-08-14T19:38:46.845Z,1.10
2022-08-14T19:41:16.082Z,1.10
2022-08-14T19:43:55.572Z,1.05
2022-08-14T19:46:37.775Z,1.10
2022-08-14T19:49:07.359Z,1.30
2022-08-14T19:51:43.021Z,1.02
2022-08-14T19:54:13.163Z,0.98
2022-08-14T19:56:42.123Z,0.98
2022-08-14T19:59:17.729Z,1.00
2022-08-14T20:01:44.148Z,1.00
2022-08-14T20:04:46.685Z,1.20
2022-08-14T20:07:06.458Z,0.98
2022-08-14T20:11:03.334Z,1.05
2022-08-14T20:12:36.563Z,1.20
2022-08-14T20:15:17.809Z,1.10
2022-08-14T20:17:52.774Z,0.80
2022-08-14T20:20:32.403Z,1.05
2022-08-14T20:23:02.474Z,1.17
2022-08-14T20:25:45.482Z,1.10
2022-08-14T20:28:30.168Z,1.02
2022-08-14T20:31:17.769Z,0.90
2022-08-14T20:34:03.363Z,1.40
2022-08-14T20:36:29.670Z,1.17
2022-08-14T20:38:58.961Z,1.10
2022-08-14T20:41:25.186Z,1.30
2022-08-14T20:44:28.756Z,0.80
2022-08-14T20:47:00.377Z,0.90
2022-08-14T20:49:28.167Z,0.90
2022-08-14T20:51:59.945Z,1.00
2022-08-14T20:54:34.361Z,1.10
2022-08-14T20:57:09.367Z,1.02
2022-08-14T20:59:51.731Z,1.10
2022-08-14T21:02:34.331Z,1.00
2022-08-14T21:05:17.361Z,0.98
2022-08-14T21:07:51.332Z,1.00
2022-08-14T21:10:33.870Z,0.90
2022-08-14T21:13:27.959Z,0.95
2022-08-14T21:15:57.537Z,1.02
2022-08-14T21:18:44.916Z,1.02
2022-08-14T21:21:17.370Z,1.00
2022-08-14T21:23:54.510Z,1.00
2022-08-14T21:26:50.954Z,1.05
2022-08-14T21:29:11.509Z,1.13
2022-08-14T21:31:38.422Z,1.00
2022-08-14T21:34:27.372Z,0.95
2022-08-14T21:36:53.827Z,1.10
2022-08-14T21:39:21.832Z,1.10
2022-08-14T21:41:58.772Z,1.08
2022-08-14T21:44:43.590Z,1.10
2022-08-14T21:47:13.149Z,1.10
2022-08-14T21:49:43.059Z,1.15
2022-08-14T21:52:49.780Z,0.88
2022-08-14T21:55:08.564Z,1.08
2022-08-14T21:58:04.107Z,1.10
2022-08-14T22:00:35.085Z,0.80
2022-08-14T22:03:05.547Z,0.98
2022-08-14T22:05:31.902Z,0.98
2022-08-14T22:07:58.770Z,1.02
2022-08-14T22:10:25.424Z,0.98
2022-08-14T22:13:00.913Z,0.93
2022-08-14T22:15:29.747Z,0.80
2022-08-14T22:17:57.557Z,0.93
2022-08-14T22:20:27.522Z,0.80
2022-08-14T22:22:55.851Z,1.10
2022-08-14T22:25:23.083Z,1.05
2022-08-14T22:28:00.772Z,1.10
2022-08-14T22:30:27.051Z,1.05
2022-08-14T22:32:57.287Z,1.10
2022-08-14T22:35:25.813Z,1.00
2022-08-14T22:38:01.804Z,0.93
2022-08-14T22:41:05.133Z,1.00
2022-08-14T22:43:31.346Z,1.00
2022-08-14T22:45:58.093Z,1.10
2022-08-14T22:48:29.353Z,1.15
2022-08-14T22:50:55.878Z,1.00
2022-08-14T22:53:22.182Z,1.10
2022-08-14T22:55:48.563Z,1.13
2022-08-14T22:58:31.753Z,1.00
2022-08-14T23:01:05.542Z,1.10
2022-08-14T23:03:37.996Z,0.95
2022-08-14T23:07:02.092Z,1.02
2022-08-14T23:08:59.027Z,1.05
2022-08-14T23:11:28.863Z,0.80
2022-08-14T23:13:55.347Z,0.90
2022-08-14T23:16:23.474Z,1.00
2022-08-14T23:18:53.857Z,1.10
2022-08-14T23:21:21.487Z,1.00
2022-08-14T23:23:51.863Z,0.98
2022-08-14T23:26:48.443Z,0.90
2022-08-14T23:29:08.274Z,1.02
2022-08-14T23:31:37.811Z,1.00
2022-08-14T23:34:07.947Z,0.98
2022-08-14T23:36:42.698Z,1.20
2022-08-14T23:39:24.482Z,1.00
2022-08-14T23:41:53.705Z,1.00
2022-08-14T23:44:24.164Z,1.10
2022-08-14T23:46:52.755Z,0.90
2022-08-14T23:49:25.066Z,1.00
2022-08-14T23:51:59.749Z,1.10
2022-08-14T23:54:48.817Z,1.10
2022-08-14T23:57:19.183Z,1.00
2022-08-14T23:59:54.810Z,1.13
